createdAt,value
2018-06-01T00:00:31.850Z,98.30
2018-06-01T00:02:58.276Z,98.30
2018-06-01T00:05:25.562Z,98.70
2018-06-01T00:07:52.726Z,98.80
2018-06-01T00:10:19.897Z,98.70
2018-06-01T00:12:47.073Z,99.00
2018-06-01T00:15:14.839Z,99.20
2018-06-01T00:17:41.274Z,99.10
2018-06-01T00:20:07.783Z,99.20
2018-06-01T00:22:37.487Z,99.20
2018-06-01T00:25:04.804Z,99.10
2018-06-01T00:27:31.313Z,99.00
2018-06-01T00:29:57.745Z,99.00
2018-06-01T00:32:24.169Z,98.80
2018-06-01T00:34:50.595Z,99.10
2018-06-01T00:37:17.780Z,99.10
2018-06-01T00:39:44.968Z,99.20
2018-06-01T00:42:11.419Z,99.20
2018-06-01T00:44:37.840Z,99.30
2018-06-01T00:47:04.297Z,99.30
2018-06-01T00:49:30.779Z,99.40
2018-06-01T00:51:57.234Z,99.20
2018-06-01T00:54:24.434Z,99.50
2018-06-01T00:56:50.848Z,99.50
2018-06-01T00:59:18.012Z,99.70
2018-06-01T01:01:44.469Z,99.60
2018-06-01T01:04:10.895Z,99.80
2018-06-01T01:06:37.338Z,99.90
2018-06-01T01:09:05.985Z,99.90
2018-06-01T01:11:32.473Z,99.90
2018-06-01T01:13:58.934Z,99.90
2018-06-01T01:16:25.376Z,99.90
2018-06-01T01:18:52.608Z,99.90
2018-06-01T01:21:19.056Z,99.90
2018-06-01T01:23:45.569Z,99.90
2018-06-01T01:26:11.952Z,99.90
2018-06-01T01:28:38.446Z,99.90
2018-06-01T01:31:04.940Z,99.90
2018-06-01T01:33:31.440Z,99.90
2018-06-01T01:35:57.928Z,99.90
2018-06-01T01:38:25.103Z,99.90
2018-06-01T01:40:57.560Z,99.90
2018-06-01T01:43:24.480Z,99.90
2018-06-01T01:45:51.703Z,99.90
2018-06-01T01:48:19.103Z,99.90
2018-06-01T01:50:46.317Z,99.90
2018-06-01T01:53:12.861Z,99.90
2018-06-01T01:55:40.023Z,99.90
2018-06-01T01:58:07.309Z,99.90
2018-06-01T02:00:33.760Z,99.90
2018-06-01T02:03:01.041Z,99.90
2018-06-01T02:05:28.417Z,99.90
2018-06-01T02:07:55.598Z,99.90
2018-06-01T02:10:22.069Z,99.90
2018-06-01T02:12:48.606Z,99.90
2018-06-01T02:15:15.165Z,99.90
2018-06-01T02:17:42.403Z,99.90
2018-06-01T02:20:09.731Z,99.90
2018-06-01T02:22:36.904Z,99.90
2018-06-01T02:25:03.389Z,99.90
2018-06-01T02:27:29.804Z,99.90
2018-06-01T02:29:56.281Z,99.90
2018-06-01T02:32:22.721Z,99.90
2018-06-01T02:34:49.178Z,99.90
2018-06-01T02:37:16.272Z,99.90
2018-06-01T02:39:42.803Z,99.90
2018-06-01T02:42:09.258Z,99.90
2018-06-01T02:44:36.619Z,99.90
2018-06-01T02:47:03.864Z,99.90
2018-06-01T02:49:31.764Z,99.90
2018-06-01T02:51:58.162Z,99.90
2018-06-01T02:54:25.131Z,99.90
2018-06-01T02:56:51.529Z,99.90
2018-06-01T02:59:17.970Z,99.90
2018-06-01T03:01:44.401Z,99.90
2018-06-01T03:04:10.832Z,99.90
2018-06-01T03:06:50.171Z,99.90
2018-06-01T03:09:17.457Z,99.90
2018-06-01T03:11:44.732Z,99.90
2018-06-01T03:14:11.931Z,99.90
2018-06-01T03:16:38.390Z,99.90
2018-06-01T03:19:04.873Z,99.90
2018-06-01T03:21:31.375Z,99.90
2018-06-01T03:23:58.649Z,99.90
2018-06-01T03:26:25.846Z,99.90
2018-06-01T03:28:52.297Z,99.90
2018-06-01T03:31:18.748Z,99.90
2018-06-01T03:33:45.271Z,99.90
2018-06-01T03:36:11.753Z,99.90
2018-06-01T03:38:38.413Z,99.90
2018-06-01T03:41:05.689Z,99.90
2018-06-01T03:43:32.842Z,99.90
2018-06-01T03:46:00.280Z,99.90
2018-06-01T03:48:26.740Z,99.90
2018-06-01T03:50:53.169Z,99.90
2018-06-01T03:53:19.611Z,99.90
2018-06-01T03:55:46.070Z,99.90
2018-06-01T03:58:12.506Z,99.90
2018-06-01T04:00:39.804Z,99.90
2018-06-01T04:03:06.282Z,99.90
2018-06-01T04:05:32.814Z,99.90
2018-06-01T04:07:59.284Z,99.70
2018-06-01T04:10:25.712Z,98.80
2018-06-01T04:12:52.934Z,97.00
2018-06-01T04:15:19.377Z,97.00
2018-06-01T04:17:45.909Z,96.00
2018-06-01T04:20:13.081Z,95.60
2018-06-01T04:22:42.403Z,95.90
2018-06-01T04:25:09.678Z,96.20
2018-06-01T04:27:36.860Z,96.40
2018-06-01T04:30:03.386Z,96.40
2018-06-01T04:32:29.787Z,96.80
2018-06-01T04:34:56.249Z,97.00
2018-06-01T04:37:22.687Z,97.30
2018-06-01T04:39:49.178Z,97.40
2018-06-01T04:42:15.691Z,97.50
2018-06-01T04:44:42.160Z,97.40
2018-06-01T04:47:08.709Z,97.40
2018-06-01T04:49:35.171Z,97.70
2018-06-01T04:52:01.584Z,97.70
2018-06-01T04:54:28.138Z,96.30
2018-06-01T04:56:54.571Z,94.80
2018-06-01T04:59:21.091Z,92.70
2018-06-01T05:01:47.553Z,90.60
2018-06-01T05:04:13.964Z,88.10
2018-06-01T05:06:41.869Z,79.10
2018-06-01T05:09:08.318Z,79.10
2018-06-01T05:11:34.761Z,75.20
2018-06-01T05:14:01.195Z,71.60
2018-06-01T05:16:28.143Z,69.20
2018-06-01T05:18:54.575Z,66.70
2018-06-01T05:21:21.753Z,62.10
2018-06-01T05:23:49.336Z,59.30
2018-06-01T05:26:16.485Z,57.60
2018-06-01T05:28:44.203Z,56.10
2018-06-01T05:31:10.650Z,56.00
2018-06-01T05:33:37.926Z,52.50
2018-06-01T05:36:05.147Z,50.90
2018-06-01T05:38:31.655Z,51.00
2018-06-01T05:40:58.825Z,47.90
2018-06-01T05:43:25.987Z,46.80
2018-06-01T05:45:53.197Z,45.90
2018-06-01T05:48:19.736Z,45.90
2018-06-01T05:50:46.140Z,45.00
2018-06-01T05:53:12.591Z,44.00
2018-06-01T05:55:39.076Z,42.90
2018-06-01T05:58:05.559Z,42.10
2018-06-01T06:00:31.991Z,41.50
2018-06-01T06:02:59.151Z,39.60
2018-06-01T06:05:25.629Z,39.50
2018-06-01T06:07:52.849Z,38.30
2018-06-01T06:10:19.375Z,38.20
2018-06-01T06:12:47.209Z,36.00
2018-06-01T06:15:13.666Z,36.00
2018-06-01T06:17:40.080Z,35.40
2018-06-01T06:20:06.575Z,35.50
2018-06-01T06:22:33.087Z,35.10
2018-06-01T06:25:00.363Z,34.50
2018-06-01T06:27:26.815Z,34.50
2018-06-01T06:29:54.024Z,34.10
2018-06-01T06:32:20.526Z,34.00
2018-06-01T06:34:46.970Z,33.50
2018-06-01T06:37:14.376Z,32.80
2018-06-01T06:39:41.561Z,31.60
2018-06-01T06:42:08.717Z,30.70
2018-06-01T06:44:35.886Z,30.70
2018-06-01T06:47:03.111Z,30.40
2018-06-01T06:49:29.573Z,30.40
2018-06-01T06:51:56.037Z,29.80
2018-06-01T06:54:22.490Z,29.60
2018-06-01T06:56:48.898Z,29.90
2018-06-01T06:59:16.177Z,29.30
2018-06-01T07:01:42.592Z,29.30
2018-06-01T07:04:09.025Z,28.90
2018-06-01T07:06:35.482Z,29.20
2018-06-01T07:09:02.099Z,30.20
2018-06-01T07:11:29.229Z,32.80
2018-06-01T07:13:55.833Z,33.40
2018-06-01T07:16:23.002Z,34.20
2018-06-01T07:18:50.279Z,34.50
2018-06-01T07:21:17.554Z,34.10
2018-06-01T07:23:44.706Z,33.30
2018-06-01T07:26:11.134Z,33.20
2018-06-01T07:28:37.593Z,32.60
2018-06-01T07:31:04.026Z,33.30
2018-06-01T07:33:31.023Z,34.50
2018-06-01T07:35:57.520Z,36.10
2018-06-01T07:38:23.965Z,38.10
2018-06-01T07:40:51.163Z,40.80
2018-06-01T07:43:17.710Z,40.20
2018-06-01T07:45:44.137Z,39.90
2018-06-01T07:48:10.581Z,39.20
2018-06-01T07:50:37.038Z,37.70
2018-06-01T07:53:03.478Z,36.10
2018-06-01T07:55:29.894Z,34.30
2018-06-01T07:57:57.164Z,33.20
2018-06-01T08:00:24.306Z,32.90
2018-06-01T08:02:50.736Z,32.80
2018-06-01T08:05:17.247Z,31.50
2018-06-01T08:07:43.809Z,31.40
2018-06-01T08:10:10.981Z,31.00
2018-06-01T08:12:38.257Z,31.10
2018-06-01T08:15:04.735Z,31.10
2018-06-01T08:17:31.197Z,31.60
2018-06-01T08:19:57.636Z,32.60
2018-06-01T08:22:24.180Z,34.70
2018-06-01T08:24:51.394Z,37.70
2018-06-01T08:27:17.826Z,37.70
2018-06-01T08:29:48.362Z,40.20
2018-06-01T08:32:14.796Z,39.50
2018-06-01T08:34:42.091Z,41.90
2018-06-01T08:37:08.519Z,42.00
2018-06-01T08:39:34.913Z,42.50
2018-06-01T08:42:01.336Z,43.00
2018-06-01T08:44:28.632Z,42.80
2018-06-01T08:46:55.574Z,42.80
2018-06-01T08:49:22.056Z,43.20
2018-06-01T08:51:49.232Z,43.10
2018-06-01T08:54:16.276Z,43.10
2018-06-01T08:56:43.443Z,43.50
2018-06-01T08:59:10.778Z,43.00
2018-06-01T09:01:37.862Z,43.40
2018-06-01T09:04:04.478Z,43.30
2018-06-01T09:06:30.914Z,44.00
2018-06-01T09:08:57.343Z,43.50
2018-06-01T09:11:23.756Z,44.40
2018-06-01T09:13:50.172Z,44.30
2018-06-01T09:16:16.578Z,43.90
2018-06-01T09:18:43.058Z,43.50
2018-06-01T09:21:09.571Z,43.70
2018-06-01T09:23:36.849Z,43.60
2018-06-01T09:26:03.506Z,43.50
2018-06-01T09:28:30.100Z,43.60
2018-06-01T09:30:56.969Z,45.30
2018-06-01T09:33:23.445Z,45.20
2018-06-01T09:35:49.882Z,44.60
2018-06-01T09:38:16.333Z,44.80
2018-06-01T09:40:42.793Z,45.30
2018-06-01T09:43:09.221Z,45.60
2018-06-01T09:45:35.669Z,45.70
2018-06-01T09:48:02.928Z,45.20
2018-06-01T09:50:30.059Z,45.60
2018-06-01T09:52:56.540Z,45.50
2018-06-01T09:55:23.076Z,45.60
2018-06-01T09:57:49.508Z,46.80
2018-06-01T10:00:16.955Z,46.80
2018-06-01T10:02:43.462Z,47.50
2018-06-01T10:05:09.929Z,47.00
2018-06-01T10:07:36.381Z,46.80
2018-06-01T10:10:09.034Z,46.30
2018-06-01T10:12:36.263Z,46.40
2018-06-01T10:15:02.964Z,46.70
2018-06-01T10:17:29.522Z,46.00
2018-06-01T10:19:56.708Z,45.10
2018-06-01T10:22:23.197Z,45.00
2018-06-01T10:24:49.820Z,44.70
2018-06-01T10:27:16.376Z,44.50
2018-06-01T10:29:42.929Z,44.80
2018-06-01T10:32:10.716Z,44.50
2018-06-01T10:34:37.277Z,44.60
2018-06-01T10:37:03.936Z,44.30
2018-06-01T10:39:31.237Z,45.50
2018-06-01T10:41:57.728Z,44.90
2018-06-01T10:44:24.939Z,46.10
2018-06-01T10:46:51.552Z,45.80
2018-06-01T10:49:18.059Z,46.30
2018-06-01T10:51:45.275Z,44.60
2018-06-01T10:54:11.895Z,44.60
2018-06-01T10:56:39.238Z,43.70
2018-06-01T10:59:06.326Z,43.10
2018-06-01T11:01:33.617Z,43.90
2018-06-01T11:04:00.825Z,43.10
2018-06-01T11:06:27.299Z,43.10
2018-06-01T11:08:53.773Z,43.90
2018-06-01T11:11:20.429Z,42.60
2018-06-01T11:13:46.916Z,43.10
2018-06-01T11:16:14.673Z,42.20
2018-06-01T11:18:41.980Z,42.50
2018-06-01T11:21:09.048Z,42.20
2018-06-01T11:23:35.717Z,41.90
2018-06-01T11:26:02.883Z,43.40
2018-06-01T11:28:30.813Z,44.20
2018-06-01T11:30:57.739Z,43.70
2018-06-01T11:33:24.354Z,43.40
2018-06-01T11:35:50.967Z,42.60
2018-06-01T11:38:17.521Z,42.80
2018-06-01T11:40:44.076Z,43.50
2018-06-01T11:43:11.228Z,44.90
2018-06-01T11:45:37.806Z,44.30
2018-06-01T11:48:05.033Z,43.20
2018-06-01T11:50:31.554Z,43.20
2018-06-01T11:52:58.005Z,43.80
2018-06-01T11:55:24.557Z,44.60
2018-06-01T11:57:51.035Z,44.40
2018-06-01T12:00:17.464Z,44.90
2018-06-01T12:02:45.769Z,46.10
2018-06-01T12:05:12.327Z,46.20
2018-06-01T12:07:39.600Z,44.30
2018-06-01T12:10:06.105Z,44.20
2018-06-01T12:12:32.718Z,44.00
2018-06-01T12:14:59.991Z,43.90
2018-06-01T12:17:27.265Z,42.90
2018-06-01T12:19:54.492Z,42.50
2018-06-01T12:22:20.980Z,42.60
2018-06-01T12:24:48.214Z,43.50
2018-06-01T12:27:14.677Z,43.50
2018-06-01T12:29:41.161Z,43.70
2018-06-01T12:32:08.415Z,44.30
2018-06-01T12:34:34.874Z,44.30
2018-06-01T12:37:01.475Z,44.90
2018-06-01T12:39:29.286Z,47.10
2018-06-01T12:41:55.922Z,47.10
2018-06-01T12:44:23.136Z,47.90
2018-06-01T12:46:49.647Z,48.50
2018-06-01T12:49:16.168Z,48.30
2018-06-01T12:51:42.653Z,48.80
2018-06-01T12:54:09.849Z,50.40
2018-06-01T12:56:36.309Z,50.40
2018-06-01T12:59:02.798Z,51.10
2018-06-01T13:01:29.720Z,51.10
2018-06-01T13:03:57.174Z,52.10
2018-06-01T13:06:23.758Z,54.10
2018-06-01T13:08:50.785Z,57.40
2018-06-01T13:11:17.251Z,59.10
2018-06-01T13:13:43.695Z,62.00
2018-06-01T13:16:10.145Z,62.00
2018-06-01T13:18:36.653Z,63.00
2018-06-01T13:21:03.928Z,66.40
2018-06-01T13:23:32.043Z,68.20
2018-06-01T13:25:58.537Z,68.20
2018-06-01T13:28:25.006Z,70.90
2018-06-01T13:30:58.946Z,73.80
2018-06-01T13:33:26.239Z,78.00
2018-06-01T13:35:52.735Z,77.10
2018-06-01T13:38:19.559Z,77.70
2018-06-01T13:40:46.832Z,80.80
2018-06-01T13:43:14.018Z,82.30
2018-06-01T13:45:40.546Z,82.20
2018-06-01T13:48:07.212Z,83.60
2018-06-01T13:50:34.273Z,84.10
2018-06-01T13:53:00.819Z,85.40
2018-06-01T13:55:27.418Z,85.60
2018-06-01T13:57:54.077Z,86.90
2018-06-01T14:00:20.635Z,88.20
2018-06-01T14:02:47.194Z,90.50
2018-06-01T14:05:14.380Z,92.20
2018-06-01T14:07:40.890Z,92.30
2018-06-01T14:10:08.304Z,94.20
2018-06-01T14:12:36.085Z,94.20
2018-06-01T14:15:03.267Z,94.90
2018-06-01T14:17:29.777Z,96.50
2018-06-01T14:19:56.985Z,98.20
2018-06-01T14:22:24.767Z,98.10
2018-06-01T14:24:51.929Z,99.30
2018-06-01T14:27:19.224Z,98.50
2018-06-01T14:29:46.408Z,97.40
2018-06-01T14:32:12.852Z,97.40
2018-06-01T14:34:40.131Z,99.00
2018-06-01T14:37:06.693Z,99.30
2018-06-01T14:39:33.127Z,99.90
2018-06-01T14:42:00.283Z,99.90
2018-06-01T14:44:26.973Z,99.90
2018-06-01T14:46:53.496Z,99.90
2018-06-01T14:49:19.912Z,99.90
2018-06-01T14:51:46.392Z,99.90
2018-06-01T14:54:12.901Z,99.90
2018-06-01T14:56:40.179Z,99.90
2018-06-01T15:01:37.563Z,99.90
2018-06-01T15:04:04.069Z,99.90
2018-06-01T15:06:30.525Z,99.90
2018-06-01T15:08:57.008Z,99.90
2018-06-01T15:11:23.474Z,99.90
2018-06-01T15:13:50.744Z,99.90
2018-06-01T15:16:17.173Z,99.90
2018-06-01T15:18:43.774Z,99.90
2018-06-01T15:21:11.083Z,99.90
2018-06-01T15:23:37.542Z,99.90
2018-06-01T15:26:04.098Z,99.90
2018-06-01T15:28:31.250Z,99.90
2018-06-01T15:30:57.727Z,99.90
2018-06-01T15:33:24.946Z,99.90
2018-06-01T15:35:51.936Z,99.90
2018-06-01T15:38:18.380Z,99.90
2018-06-01T15:40:44.826Z,99.90
2018-06-01T15:43:11.380Z,99.90
2018-06-01T15:45:37.841Z,99.90
2018-06-01T15:48:04.278Z,99.90
2018-06-01T15:50:30.819Z,99.90
2018-06-01T15:52:57.265Z,99.90
2018-06-01T15:55:24.677Z,99.90
2018-06-01T15:57:51.200Z,99.90
2018-06-01T16:00:17.661Z,99.90
2018-06-01T16:02:44.932Z,99.90
2018-06-01T16:05:12.158Z,99.90
2018-06-01T16:07:38.663Z,99.90
2018-06-01T16:10:05.857Z,99.90
2018-06-01T16:12:32.292Z,99.90
2018-06-01T16:14:58.753Z,99.90
2018-06-01T16:17:25.311Z,99.90
2018-06-01T16:19:51.866Z,99.90
2018-06-01T16:22:19.082Z,99.90
2018-06-01T16:24:45.555Z,99.90
2018-06-01T16:27:12.005Z,99.90
2018-06-01T16:29:38.447Z,99.90
2018-06-01T16:32:04.935Z,99.90
2018-06-01T16:34:31.526Z,99.90
2018-06-01T16:36:58.800Z,99.90
2018-06-01T16:39:25.951Z,99.90
2018-06-01T16:41:52.428Z,99.90
2018-06-01T16:44:19.603Z,99.90
2018-06-01T16:46:46.031Z,99.90
2018-06-01T16:49:12.617Z,99.90
2018-06-01T16:51:39.831Z,99.90
2018-06-01T16:54:06.353Z,99.90
2018-06-01T16:56:32.873Z,99.90
2018-06-01T16:58:59.351Z,99.90
2018-06-01T17:01:26.513Z,99.90
2018-06-01T17:03:52.953Z,99.90
2018-06-01T17:06:19.415Z,99.90
2018-06-01T17:08:45.866Z,99.90
2018-06-01T17:11:13.060Z,99.90
2018-06-01T17:13:40.228Z,99.90
2018-06-01T17:16:06.638Z,99.90
2018-06-01T17:18:33.115Z,99.90
2018-06-01T17:20:59.602Z,99.90
2018-06-01T17:23:26.810Z,99.90
2018-06-01T17:25:53.210Z,99.90
2018-06-01T17:28:19.650Z,99.90
2018-06-01T17:30:46.162Z,99.90
2018-06-01T17:33:13.433Z,99.40
2018-06-01T17:35:40.590Z,98.90
2018-06-01T17:38:14.362Z,98.70
2018-06-01T17:40:40.810Z,98.70
2018-06-01T17:43:07.274Z,98.30
2018-06-01T17:45:33.684Z,97.80
2018-06-01T17:48:00.882Z,97.60
2018-06-01T17:50:28.152Z,97.20
2018-06-01T17:52:54.705Z,97.20
2018-06-01T17:55:21.157Z,96.50
2018-06-01T17:57:48.339Z,97.00
2018-06-01T18:00:14.785Z,97.00
2018-06-01T18:02:42.572Z,97.00
2018-06-01T18:05:09.236Z,97.00
2018-06-01T18:07:35.895Z,96.90
2018-06-01T18:10:03.068Z,96.60
2018-06-01T18:12:31.165Z,96.40
2018-06-01T18:14:57.681Z,96.40
2018-06-01T18:17:24.125Z,96.30
2018-06-01T18:19:51.561Z,96.30
2018-06-01T18:22:18.623Z,96.50
2018-06-01T18:24:45.180Z,96.40
2018-06-01T18:27:12.391Z,96.50
2018-06-01T18:29:39.014Z,96.50
2018-06-01T18:32:06.494Z,96.40
2018-06-01T18:34:33.765Z,97.20
2018-06-01T18:37:00.885Z,97.50
2018-06-01T18:39:29.037Z,97.70
2018-06-01T18:41:55.592Z,97.80
2018-06-01T18:44:23.084Z,98.80
2018-06-01T18:46:49.584Z,98.80
2018-06-01T18:49:16.154Z,98.60
2018-06-01T18:51:43.469Z,98.70
2018-06-01T18:54:09.932Z,98.60
2018-06-01T18:56:36.405Z,98.40
2018-06-01T18:59:03.038Z,98.30
2018-06-01T19:01:30.316Z,98.80
2018-06-01T19:03:56.841Z,98.80
2018-06-01T19:06:24.147Z,99.10
2018-06-01T19:08:51.366Z,99.10
2018-06-01T19:11:18.062Z,99.00
2018-06-01T19:13:48.487Z,99.60
2018-06-01T19:16:14.957Z,99.30
2018-06-01T19:18:42.246Z,99.80
2018-06-01T19:21:09.539Z,99.40
2018-06-01T19:23:36.100Z,99.40
2018-06-01T19:26:02.752Z,99.70
2018-06-01T19:28:29.285Z,99.90
2018-06-01T19:30:55.766Z,99.90
2018-06-01T19:33:23.042Z,99.90
2018-06-01T19:35:50.418Z,99.90
2018-06-01T19:38:16.910Z,99.90
2018-06-01T19:40:43.373Z,99.90
2018-06-01T19:43:10.103Z,99.90
2018-06-01T19:45:38.026Z,99.90
2018-06-01T19:48:04.571Z,99.90
2018-06-01T19:50:31.207Z,99.90
2018-06-01T19:52:57.666Z,99.90
2018-06-01T19:55:24.934Z,99.90
2018-06-01T19:57:51.389Z,99.90
2018-06-01T20:00:18.618Z,99.90
2018-06-01T20:02:45.061Z,99.90
2018-06-01T20:05:11.576Z,99.90
2018-06-01T20:07:38.026Z,99.90
2018-06-01T20:10:20.148Z,99.90
2018-06-01T20:12:46.567Z,99.90
2018-06-01T20:15:13.014Z,99.90
2018-06-01T20:17:39.418Z,99.90
2018-06-01T20:20:06.067Z,99.90
2018-06-01T20:22:33.253Z,99.90
2018-06-01T20:24:59.707Z,99.90
2018-06-01T20:27:26.147Z,99.90
2018-06-01T20:29:53.373Z,99.90
2018-06-01T20:32:19.800Z,99.90
2018-06-01T20:34:46.276Z,99.90
2018-06-01T20:37:12.710Z,99.90
2018-06-01T20:39:39.196Z,99.90
2018-06-01T20:42:05.985Z,99.90
2018-06-01T20:44:33.899Z,99.90
2018-06-01T20:47:02.377Z,99.90
2018-06-01T20:49:29.405Z,99.90
2018-06-01T20:51:55.935Z,99.90
2018-06-01T20:54:22.381Z,99.90
2018-06-01T20:56:48.849Z,99.90
2018-06-01T20:59:16.119Z,99.90
2018-06-01T21:01:42.571Z,99.90
2018-06-01T21:04:09.744Z,99.90
2018-06-01T21:06:36.945Z,99.90
2018-06-01T21:09:04.490Z,99.90
2018-06-01T21:11:31.714Z,99.90
2018-06-01T21:13:58.131Z,99.90
2018-06-01T21:16:24.566Z,99.90
2018-06-01T21:18:50.996Z,99.90
2018-06-01T21:21:17.491Z,99.90
2018-06-01T21:23:43.933Z,99.90
2018-06-01T21:26:10.519Z,99.90
2018-06-01T21:28:36.959Z,99.90
2018-06-01T21:31:04.213Z,99.90
2018-06-01T21:33:30.651Z,99.90
2018-06-01T21:35:57.102Z,99.90
2018-06-01T21:38:23.620Z,99.90
2018-06-01T21:40:50.057Z,99.90
2018-06-01T21:43:16.507Z,99.90
2018-06-01T21:45:43.685Z,99.90
2018-06-01T21:48:10.105Z,99.90
2018-06-01T21:50:36.557Z,99.90
2018-06-01T21:53:03.071Z,99.90
2018-06-01T21:55:29.631Z,99.90
2018-06-01T21:57:56.850Z,99.90
2018-06-01T22:00:23.314Z,99.90
2018-06-01T22:02:49.821Z,99.90
2018-06-01T22:05:16.324Z,99.90
2018-06-01T22:07:43.141Z,99.90
2018-06-01T22:10:09.700Z,99.90
2018-06-01T22:12:36.191Z,99.90
2018-06-01T22:15:02.680Z,99.90
2018-06-01T22:17:29.095Z,99.90
2018-06-01T22:19:55.527Z,99.90
2018-06-01T22:22:22.726Z,99.90
2018-06-01T22:24:49.221Z,99.90
2018-06-01T22:27:15.715Z,99.90
2018-06-01T22:29:42.151Z,99.90
2018-06-01T22:32:08.615Z,99.90
2018-06-01T22:34:35.777Z,99.90
2018-06-01T22:37:02.203Z,99.90
2018-06-01T22:39:28.617Z,99.90
2018-06-01T22:41:55.172Z,99.90
2018-06-01T22:44:21.628Z,99.90
2018-06-01T22:46:48.780Z,99.90
2018-06-01T22:49:16.172Z,99.90
2018-06-01T22:51:43.449Z,99.90
2018-06-01T22:54:10.824Z,99.90
2018-06-01T22:56:37.240Z,99.90
2018-06-01T22:59:03.707Z,99.90
2018-06-01T23:01:30.169Z,99.90
2018-06-01T23:03:56.615Z,99.90
2018-06-01T23:06:23.050Z,99.90
2018-06-01T23:08:49.484Z,99.90
2018-06-01T23:11:16.123Z,99.90
2018-06-01T23:13:43.258Z,99.90
2018-06-01T23:16:09.714Z,99.90
2018-06-01T23:18:36.210Z,99.90
2018-06-01T23:21:02.772Z,99.90
2018-06-01T23:23:29.326Z,99.90
2018-06-01T23:25:56.600Z,99.90
2018-06-01T23:28:23.882Z,99.90
2018-06-01T23:30:51.051Z,99.90
2018-06-01T23:33:17.501Z,99.90
2018-06-01T23:35:44.656Z,99.90
2018-06-01T23:38:11.072Z,99.90
2018-06-01T23:40:37.528Z,99.90
2018-06-01T23:43:04.048Z,99.90
2018-06-01T23:46:36.686Z,99.90
2018-06-01T23:49:03.161Z,99.90
2018-06-01T23:51:29.688Z,99.90
2018-06-01T23:53:56.971Z,99.90
2018-06-01T23:56:23.433Z,99.90
2018-06-01T23:58:49.902Z,99.90
